createdAt,value
2022-12-22T00:00:12.100Z,15.84
2022-12-22T00:01:29.614Z,15.69
2022-12-22T00:02:41.748Z,16.08
2022-12-22T00:03:53.665Z,16.02
2022-12-22T00:05:05.558Z,16.51
2022-12-22T00:06:17.561Z,16.56
2022-12-22T00:07:29.554Z,16.83
2022-12-22T00:08:29.582Z,17.44
2022-12-22T00:09:28.366Z,17.09
2022-12-22T00:10:28.590Z,17.06
2022-12-22T00:11:27.319Z,16.76
2022-12-22T00:12:27.558Z,16.25
2022-12-22T00:13:26.074Z,16.45
2022-12-22T00:14:24.541Z,17.24
2022-12-22T00:15:24.398Z,18.29
2022-12-22T00:16:23.603Z,17.73
2022-12-22T00:17:24.944Z,17.39
2022-12-22T00:18:23.534Z,17.98
2022-12-22T00:19:22.065Z,18.29
2022-12-22T00:20:20.547Z,18.61
2022-12-22T00:21:19.003Z,19.51
2022-12-22T00:22:17.513Z,19.74
2022-12-22T00:23:16.067Z,18.41
2022-12-22T00:24:15.522Z,18.66
2022-12-22T00:25:14.178Z,17.31
2022-12-22T00:26:13.539Z,16.40
2022-12-22T00:27:12.253Z,17.08
2022-12-22T00:28:11.517Z,16.45
2022-12-22T00:29:10.107Z,15.38
2022-12-22T00:30:10.544Z,15.14
2022-12-22T00:31:09.990Z,15.48
2022-12-22T00:32:08.539Z,15.55
2022-12-22T00:33:07.464Z,15.38
2022-12-22T00:34:06.512Z,15.05
2022-12-22T00:35:07.345Z,15.45
2022-12-22T00:36:06.498Z,15.68
2022-12-22T00:37:18.749Z,15.25
2022-12-22T00:38:30.510Z,14.99
2022-12-22T00:39:45.499Z,14.86
2022-12-22T00:41:01.512Z,15.05
2022-12-22T00:42:14.503Z,14.77
2022-12-22T00:43:13.542Z,14.93
2022-12-22T00:44:12.228Z,15.15
2022-12-22T00:45:11.537Z,14.89
2022-12-22T00:46:10.323Z,14.75
2022-12-22T00:47:10.506Z,15.06
2022-12-22T00:48:08.971Z,14.95
2022-12-22T00:49:09.537Z,14.93
2022-12-22T00:50:11.215Z,14.91
2022-12-22T00:51:10.556Z,15.26
2022-12-22T00:52:10.503Z,15.24
2022-12-22T00:53:09.500Z,14.76
2022-12-22T00:54:08.480Z,15.01
2022-12-22T00:55:07.505Z,15.29
2022-12-22T00:56:06.077Z,15.36
2022-12-22T00:57:05.516Z,16.04
2022-12-22T00:58:05.307Z,16.63
2022-12-22T00:59:04.493Z,16.45
2022-12-22T01:00:03.034Z,16.85
2022-12-22T01:01:02.538Z,17.36
2022-12-22T01:02:01.371Z,17.49
2022-12-22T01:03:00.631Z,17.02
2022-12-22T01:03:59.030Z,16.70
2022-12-22T01:04:57.502Z,16.52
2022-12-22T01:05:56.093Z,16.24
2022-12-22T01:06:57.499Z,15.66
2022-12-22T01:07:56.104Z,15.57
2022-12-22T01:08:55.466Z,15.76
2022-12-22T01:09:53.957Z,15.40
2022-12-22T01:10:52.478Z,15.02
2022-12-22T01:11:52.220Z,15.14
2022-12-22T01:12:52.529Z,15.27
2022-12-22T01:13:52.213Z,15.25
2022-12-22T01:14:51.491Z,15.02
2022-12-22T01:15:51.950Z,14.82
2022-12-22T01:16:50.500Z,15.18
2022-12-22T01:17:48.945Z,14.79
2022-12-22T01:18:47.529Z,15.11
2022-12-22T01:19:45.931Z,15.05
2022-12-22T01:20:44.463Z,15.29
2022-12-22T01:21:43.849Z,15.09
2022-12-22T01:22:46.499Z,15.23
2022-12-22T01:23:45.051Z,15.25
2022-12-22T01:24:44.488Z,15.09
2022-12-22T01:25:45.463Z,15.26
2022-12-22T01:26:45.448Z,15.20
2022-12-22T01:27:44.230Z,15.00
2022-12-22T01:28:43.461Z,14.99
2022-12-22T01:29:41.891Z,14.63
2022-12-22T01:30:40.532Z,15.10
2022-12-22T01:31:44.224Z,15.24
2022-12-22T01:32:50.435Z,15.29
2022-12-22T01:33:43.181Z,15.00
2022-12-22T01:34:49.444Z,15.49
2022-12-22T01:35:54.507Z,15.31
2022-12-22T01:37:06.519Z,15.68
2022-12-22T01:38:18.454Z,14.86
2022-12-22T01:39:30.452Z,13.95
2022-12-22T01:40:50.443Z,14.14
2022-12-22T01:41:49.507Z,13.61
2022-12-22T01:42:48.237Z,13.50
2022-12-22T01:43:51.456Z,13.49
2022-12-22T01:44:50.211Z,13.05
2022-12-22T01:45:54.448Z,12.88
2022-12-22T01:47:18.438Z,13.05
2022-12-22T01:48:30.438Z,13.10
2022-12-22T01:49:51.448Z,12.65
2022-12-22T01:51:06.425Z,12.94
2022-12-22T01:52:18.457Z,12.94
2022-12-22T01:53:30.428Z,12.77
2022-12-22T01:54:44.425Z,12.40
2022-12-22T01:55:58.442Z,12.55
2022-12-22T01:57:11.429Z,12.59
2022-12-22T01:58:10.446Z,12.18
2022-12-22T01:59:15.056Z,12.30
2022-12-22T02:00:14.412Z,12.63
2022-12-22T02:01:12.926Z,12.41
2022-12-22T02:02:11.642Z,12.35
2022-12-22T02:03:10.393Z,12.30
2022-12-22T02:04:09.438Z,11.90
2022-12-22T02:05:11.064Z,12.70
2022-12-22T02:06:59.823Z,13.24
2022-12-22T02:08:32.841Z,13.48
2022-12-22T02:10:08.466Z,12.94
2022-12-22T02:11:41.326Z,12.07
2022-12-22T02:13:00.417Z,12.30
2022-12-22T02:14:49.808Z,12.43
2022-12-22T02:16:11.495Z,12.26
2022-12-22T02:18:06.843Z,12.07
2022-12-22T02:19:19.391Z,12.44
2022-12-22T02:21:00.786Z,12.36
2022-12-22T02:22:33.433Z,12.21
2022-12-22T02:24:15.126Z,12.36
2022-12-22T02:25:30.415Z,12.00
2022-12-22T02:26:53.030Z,11.89
2022-12-22T02:27:53.438Z,12.25
2022-12-22T02:28:51.902Z,11.91
2022-12-22T02:30:00.420Z,11.93
2022-12-22T02:31:00.344Z,11.77
2022-12-22T02:32:02.388Z,12.01
2022-12-22T02:33:10.448Z,12.24
2022-12-22T02:34:22.405Z,11.94
2022-12-22T02:35:46.387Z,11.86
2022-12-22T02:37:24.385Z,12.50
2022-12-22T02:39:12.390Z,11.96
2022-12-22T02:40:23.072Z,11.69
2022-12-22T02:42:09.398Z,12.09
2022-12-22T02:43:53.019Z,11.71
2022-12-22T02:45:09.416Z,12.49
2022-12-22T02:46:21.377Z,12.65
2022-12-22T02:48:03.390Z,13.15
2022-12-22T02:49:26.034Z,16.23
2022-12-22T02:50:56.379Z,19.41
2022-12-22T02:51:59.911Z,18.63
2022-12-22T02:53:01.372Z,17.95
2022-12-22T02:53:59.975Z,17.73
2022-12-22T02:55:00.390Z,17.24
2022-12-22T02:56:06.399Z,16.84
2022-12-22T02:56:59.968Z,15.27
2022-12-22T02:58:06.374Z,14.50
2022-12-22T02:58:58.772Z,14.31
2022-12-22T03:00:05.426Z,14.70
2022-12-22T03:00:58.491Z,14.88
2022-12-22T03:01:57.484Z,15.16
2022-12-22T03:02:50.393Z,15.79
2022-12-22T03:03:43.215Z,15.55
2022-12-22T03:04:42.358Z,13.71
2022-12-22T03:05:34.909Z,13.27
2022-12-22T03:06:27.545Z,12.45
2022-12-22T03:07:26.420Z,12.18
2022-12-22T03:08:18.817Z,12.11
2022-12-22T03:09:11.712Z,11.96
2022-12-22T03:10:10.352Z,11.79
2022-12-22T03:11:03.145Z,11.52
2022-12-22T03:11:55.735Z,11.50
2022-12-22T03:12:54.386Z,11.01
2022-12-22T03:13:47.223Z,11.18
2022-12-22T03:14:39.901Z,11.34
2022-12-22T03:15:39.378Z,11.06
2022-12-22T03:16:32.037Z,10.94
2022-12-22T03:17:24.592Z,10.73
2022-12-22T03:18:32.332Z,10.46
2022-12-22T03:19:24.969Z,10.96
2022-12-22T03:20:17.447Z,11.36
2022-12-22T03:21:17.337Z,10.82
2022-12-22T03:22:09.830Z,10.85
2022-12-22T03:23:02.666Z,10.91
2022-12-22T03:24:01.349Z,10.39
2022-12-22T03:24:54.038Z,10.81
2022-12-22T03:25:46.764Z,10.70
2022-12-22T03:26:27.360Z,10.20
2022-12-22T03:27:01.393Z,9.90
2022-12-22T03:27:35.083Z,9.85
2022-12-22T03:28:16.348Z,10.02
2022-12-22T03:28:50.443Z,10.25
2022-12-22T03:29:30.368Z,10.65
2022-12-22T03:30:11.578Z,10.41
2022-12-22T03:30:51.322Z,10.52
2022-12-22T03:31:32.483Z,10.34
2022-12-22T03:32:12.340Z,10.46
2022-12-22T03:32:52.392Z,10.51
2022-12-22T03:33:32.355Z,10.01
2022-12-22T03:34:13.561Z,10.00
2022-12-22T03:34:53.352Z,10.10
2022-12-22T03:35:34.412Z,10.04
2022-12-22T03:36:16.317Z,10.39
2022-12-22T03:36:56.385Z,10.38
2022-12-22T03:37:36.332Z,10.46
2022-12-22T03:38:16.524Z,10.30
2022-12-22T03:38:56.321Z,10.30
2022-12-22T03:39:36.406Z,10.80
2022-12-22T03:40:17.346Z,10.09
2022-12-22T03:40:58.386Z,9.76
2022-12-22T03:41:57.339Z,9.82
2022-12-22T03:42:55.883Z,9.70
2022-12-22T03:43:55.328Z,9.79
2022-12-22T03:44:53.891Z,9.85
2022-12-22T03:45:53.400Z,9.88
2022-12-22T03:46:34.422Z,10.05
2022-12-22T03:47:14.356Z,9.94
2022-12-22T03:47:54.367Z,9.89
2022-12-22T03:48:34.342Z,10.48
2022-12-22T03:49:14.396Z,10.30
2022-12-22T03:49:54.309Z,10.18
2022-12-22T03:50:34.379Z,10.16
2022-12-22T03:51:16.301Z,10.52
2022-12-22T03:51:57.395Z,10.69
2022-12-22T03:52:37.318Z,9.83
2022-12-22T03:53:17.366Z,9.60
2022-12-22T03:53:57.302Z,9.68
2022-12-22T03:54:37.364Z,9.64
2022-12-22T03:55:24.307Z,9.75
2022-12-22T03:56:01.284Z,9.84
2022-12-22T03:56:46.315Z,10.07
2022-12-22T03:57:26.403Z,9.65
2022-12-22T03:58:06.298Z,9.44
2022-12-22T03:58:46.536Z,9.56
2022-12-22T03:59:27.323Z,9.89
2022-12-22T04:00:07.378Z,9.79
2022-12-22T04:00:48.329Z,9.69
2022-12-22T04:01:28.461Z,9.50
2022-12-22T04:02:08.428Z,9.43
2022-12-22T04:02:48.535Z,9.88
2022-12-22T04:03:28.322Z,9.85
2022-12-22T04:04:08.365Z,9.44
2022-12-22T04:04:48.301Z,9.38
2022-12-22T04:05:28.366Z,9.30
2022-12-22T04:06:09.332Z,9.68
2022-12-22T04:06:50.403Z,9.60
2022-12-22T04:07:30.353Z,9.18
2022-12-22T04:08:11.384Z,9.18
2022-12-22T04:08:52.366Z,9.31
2022-12-22T04:09:32.384Z,9.19
2022-12-22T04:10:32.323Z,9.16
2022-12-22T04:11:31.116Z,9.23
2022-12-22T04:12:31.316Z,9.29
2022-12-22T04:13:11.345Z,8.93
2022-12-22T04:13:51.293Z,9.06
2022-12-22T04:14:34.411Z,8.94
2022-12-22T04:15:17.278Z,9.02
2022-12-22T04:15:57.410Z,8.82
2022-12-22T04:16:38.303Z,9.09
2022-12-22T04:17:18.397Z,9.32
2022-12-22T04:17:59.317Z,9.11
2022-12-22T04:18:39.380Z,8.38
2022-12-22T04:19:19.298Z,8.70
2022-12-22T04:19:59.340Z,8.85
2022-12-22T04:20:40.265Z,9.06
2022-12-22T04:21:20.338Z,8.85
2022-12-22T04:22:01.326Z,8.57
2022-12-22T04:22:41.345Z,8.64
2022-12-22T04:23:21.291Z,9.19
2022-12-22T04:24:01.316Z,9.56
2022-12-22T04:24:42.269Z,9.93
2022-12-22T04:25:22.383Z,9.39
2022-12-22T04:26:02.275Z,9.18
2022-12-22T04:26:42.439Z,9.30
2022-12-22T04:27:22.267Z,10.05
2022-12-22T04:28:02.333Z,10.86
2022-12-22T04:28:42.319Z,10.81
2022-12-22T04:29:23.446Z,10.41
2022-12-22T04:30:03.248Z,10.24
2022-12-22T04:30:43.342Z,10.06
2022-12-22T04:31:23.316Z,10.19
2022-12-22T04:32:03.457Z,10.54
2022-12-22T04:32:44.278Z,11.20
2022-12-22T04:33:24.358Z,10.88
2022-12-22T04:34:05.282Z,10.36
2022-12-22T04:34:45.349Z,10.07
2022-12-22T04:35:25.258Z,10.32
2022-12-22T04:36:05.306Z,10.77
2022-12-22T04:36:45.303Z,10.43
2022-12-22T04:37:26.424Z,10.20
2022-12-22T04:38:06.304Z,10.05
2022-12-22T04:38:46.376Z,9.89
2022-12-22T04:39:27.313Z,10.61
2022-12-22T04:40:08.745Z,11.05
2022-12-22T04:40:49.256Z,10.52
2022-12-22T04:41:29.353Z,10.46
2022-12-22T04:42:09.243Z,11.04
2022-12-22T04:42:49.303Z,10.57
2022-12-22T04:43:30.247Z,10.25
2022-12-22T04:44:10.447Z,10.50
2022-12-22T04:44:50.261Z,10.10
2022-12-22T04:45:30.376Z,10.18
2022-12-22T04:46:11.326Z,9.95
2022-12-22T04:46:51.322Z,10.29
2022-12-22T04:47:31.251Z,10.26
2022-12-22T04:48:12.363Z,10.14
2022-12-22T04:48:57.883Z,10.13
2022-12-22T04:49:40.351Z,9.98
2022-12-22T04:50:20.345Z,9.70
2022-12-22T04:51:03.360Z,9.48
2022-12-22T04:51:43.240Z,9.16
2022-12-22T04:52:23.327Z,9.48
2022-12-22T04:53:04.235Z,9.35
2022-12-22T04:53:38.035Z,9.26
2022-12-22T04:54:25.255Z,9.52
2022-12-22T04:54:59.003Z,10.04
2022-12-22T04:55:39.246Z,10.09
2022-12-22T04:56:15.385Z,9.82
2022-12-22T04:56:50.533Z,9.79
2022-12-22T04:57:34.334Z,9.89
2022-12-22T04:58:12.353Z,10.21
2022-12-22T04:58:46.071Z,10.94
2022-12-22T04:59:27.254Z,11.68
2022-12-22T05:00:01.375Z,11.99
2022-12-22T05:00:34.975Z,12.51
2022-12-22T05:01:19.317Z,14.24
2022-12-22T05:01:53.341Z,15.82
2022-12-22T05:02:27.014Z,16.50
2022-12-22T05:03:07.327Z,16.97
2022-12-22T05:03:41.476Z,17.94
2022-12-22T05:04:18.762Z,18.30
2022-12-22T05:05:03.239Z,18.27
2022-12-22T05:05:37.351Z,19.40
2022-12-22T05:06:11.327Z,20.44
2022-12-22T05:06:52.251Z,20.77
2022-12-22T05:07:26.283Z,22.33
2022-12-22T05:08:00.188Z,23.66
2022-12-22T05:08:41.242Z,23.04
2022-12-22T05:09:17.574Z,22.74
2022-12-22T05:09:52.001Z,20.69
2022-12-22T05:10:33.238Z,19.86
2022-12-22T05:11:07.307Z,19.94
2022-12-22T05:11:41.977Z,19.16
2022-12-22T05:12:41.242Z,18.02
2022-12-22T05:13:15.282Z,17.24
2022-12-22T05:13:48.923Z,16.20
2022-12-22T05:14:29.205Z,15.79
2022-12-22T05:15:03.325Z,14.64
2022-12-22T05:15:37.455Z,14.02
2022-12-22T05:16:23.239Z,12.40
2022-12-22T05:16:57.467Z,10.74
2022-12-22T05:17:31.432Z,10.82
2022-12-22T05:18:12.243Z,10.60
2022-12-22T05:18:47.680Z,10.91
2022-12-22T05:19:24.976Z,10.96
2022-12-22T05:20:10.244Z,9.82
2022-12-22T05:20:44.278Z,9.57
2022-12-22T05:21:21.455Z,9.86
2022-12-22T05:22:01.199Z,9.40
2022-12-22T05:22:35.305Z,9.18
2022-12-22T05:23:08.927Z,9.14
2022-12-22T05:23:50.256Z,8.91
2022-12-22T05:24:24.294Z,8.99
2022-12-22T05:24:57.922Z,9.50
2022-12-22T05:25:39.203Z,9.25
2022-12-22T05:26:14.541Z,8.77
2022-12-22T05:26:48.904Z,8.91
2022-12-22T05:27:29.204Z,8.56
2022-12-22T05:28:03.342Z,8.63
2022-12-22T05:28:37.041Z,9.13
2022-12-22T05:29:17.218Z,9.15
2022-12-22T05:29:51.297Z,9.27
2022-12-22T05:30:26.437Z,9.04
2022-12-22T05:31:17.324Z,9.63
2022-12-22T05:31:51.301Z,9.34
2022-12-22T05:32:25.010Z,9.26
2022-12-22T05:33:06.226Z,9.32
2022-12-22T05:33:40.273Z,9.24
2022-12-22T05:34:13.926Z,9.09
2022-12-22T05:34:55.281Z,8.96
2022-12-22T05:35:29.422Z,9.36
2022-12-22T05:36:03.740Z,9.59
2022-12-22T05:36:44.219Z,9.39
2022-12-22T05:37:18.391Z,9.57
2022-12-22T05:37:52.188Z,9.65
2022-12-22T05:38:33.225Z,9.64
2022-12-22T05:39:07.331Z,9.73
2022-12-22T05:39:42.029Z,9.43
2022-12-22T05:40:22.218Z,9.01
2022-12-22T05:41:03.288Z,9.46
2022-12-22T05:41:37.899Z,9.66
2022-12-22T05:42:18.188Z,9.36
2022-12-22T05:42:52.283Z,9.14
2022-12-22T05:43:25.882Z,9.30
2022-12-22T05:44:07.199Z,9.20
2022-12-22T05:44:41.307Z,9.51
2022-12-22T05:45:20.817Z,9.57
2022-12-22T05:46:02.231Z,9.36
2022-12-22T05:46:36.344Z,9.52
2022-12-22T05:47:09.978Z,9.40
2022-12-22T05:47:53.202Z,9.44
2022-12-22T05:48:31.002Z,9.40
2022-12-22T05:49:09.885Z,9.61
2022-12-22T05:49:50.196Z,9.24
2022-12-22T05:50:28.305Z,9.46
2022-12-22T05:51:01.998Z,9.27
2022-12-22T05:51:42.264Z,9.32
2022-12-22T05:52:16.294Z,9.80
2022-12-22T05:52:50.312Z,9.93
2022-12-22T05:53:30.184Z,10.19
2022-12-22T05:54:04.253Z,9.94
2022-12-22T05:54:37.897Z,9.96
2022-12-22T05:55:20.170Z,10.24
2022-12-22T05:55:54.464Z,10.11
2022-12-22T05:56:28.141Z,10.45
2022-12-22T05:57:09.219Z,10.59
2022-12-22T05:57:43.589Z,10.34
2022-12-22T05:58:18.325Z,10.63
2022-12-22T05:58:59.168Z,11.04
2022-12-22T05:59:33.286Z,11.05
2022-12-22T06:00:10.812Z,11.40
2022-12-22T06:00:51.155Z,11.55
2022-12-22T06:01:25.321Z,11.35
2022-12-22T06:01:58.922Z,11.24
2022-12-22T06:02:40.286Z,11.25
2022-12-22T06:03:14.466Z,11.00
2022-12-22T06:03:50.345Z,10.95
2022-12-22T06:04:32.209Z,11.06
2022-12-22T06:05:06.227Z,10.81
2022-12-22T06:05:40.070Z,10.41
2022-12-22T06:06:21.164Z,10.81
2022-12-22T06:06:55.288Z,11.10
2022-12-22T06:07:29.877Z,11.32
2022-12-22T06:08:11.184Z,11.21
2022-12-22T06:08:45.278Z,11.21
2022-12-22T06:09:18.875Z,11.25
2022-12-22T06:10:00.180Z,11.41
2022-12-22T06:10:34.343Z,11.76
2022-12-22T06:11:08.069Z,11.75
2022-12-22T06:11:49.179Z,11.69
2022-12-22T06:12:23.383Z,11.19
2022-12-22T06:12:56.847Z,11.27
2022-12-22T06:13:38.162Z,11.36
2022-12-22T06:14:12.209Z,11.36
2022-12-22T06:14:45.962Z,11.18
2022-12-22T06:15:26.170Z,11.26
2022-12-22T06:16:00.329Z,11.52
2022-12-22T06:16:33.943Z,11.30
2022-12-22T06:17:15.160Z,11.04
2022-12-22T06:17:49.219Z,10.59
2022-12-22T06:18:23.947Z,10.69
2022-12-22T06:19:04.165Z,10.81
2022-12-22T06:19:38.232Z,10.70
2022-12-22T06:20:13.837Z,10.49
2022-12-22T06:20:57.198Z,10.41
2022-12-22T06:21:32.252Z,10.15
2022-12-22T06:22:06.052Z,10.43
2022-12-22T06:22:47.161Z,10.18
2022-12-22T06:23:22.264Z,10.14
2022-12-22T06:23:56.309Z,10.50
2022-12-22T06:24:36.199Z,10.90
2022-12-22T06:25:17.250Z,11.00
2022-12-22T06:26:00.504Z,10.85
2022-12-22T06:26:40.143Z,11.07
2022-12-22T06:27:14.289Z,11.68
2022-12-22T06:27:48.844Z,12.46
2022-12-22T06:28:30.169Z,12.61
2022-12-22T06:29:04.230Z,11.99
2022-12-22T06:29:44.176Z,11.76
2022-12-22T06:30:30.941Z,11.52
2022-12-22T06:31:13.253Z,11.20
2022-12-22T06:31:53.256Z,11.63
2022-12-22T06:32:35.143Z,11.93
2022-12-22T06:33:16.231Z,11.74
2022-12-22T06:33:50.069Z,11.76
2022-12-22T06:34:31.161Z,11.57
2022-12-22T06:35:12.175Z,11.86
2022-12-22T06:35:48.668Z,11.66
2022-12-22T06:36:38.140Z,11.30
2022-12-22T06:37:11.995Z,11.41
2022-12-22T06:37:59.138Z,11.14
2022-12-22T06:38:33.102Z,11.02
2022-12-22T06:39:21.127Z,11.48
2022-12-22T06:39:54.829Z,11.36
2022-12-22T06:40:35.126Z,11.48
2022-12-22T06:41:09.370Z,11.40
2022-12-22T06:42:02.733Z,11.13
2022-12-22T06:43:08.446Z,10.70
2022-12-22T06:43:43.193Z,10.39
2022-12-22T06:44:16.844Z,10.54
2022-12-22T06:44:59.131Z,10.81
2022-12-22T06:45:33.191Z,10.61
2022-12-22T06:46:13.168Z,10.36
2022-12-22T06:46:53.255Z,10.84
2022-12-22T06:47:33.155Z,11.43
2022-12-22T06:48:15.259Z,14.21
2022-12-22T06:48:55.145Z,14.82
2022-12-22T06:49:35.183Z,14.45
2022-12-22T06:50:16.118Z,16.41
2022-12-22T06:50:57.231Z,17.59
2022-12-22T06:51:37.164Z,16.29
2022-12-22T06:52:18.260Z,17.88
2022-12-22T06:52:59.123Z,16.10
2022-12-22T06:53:39.174Z,15.68
2022-12-22T06:54:24.037Z,16.33
2022-12-22T06:55:06.224Z,15.44
2022-12-22T06:55:47.148Z,14.60
2022-12-22T06:56:27.195Z,14.32
2022-12-22T06:57:08.177Z,14.55
2022-12-22T06:57:48.232Z,13.31
2022-12-22T06:58:29.154Z,13.02
2022-12-22T06:59:10.176Z,12.13
2022-12-22T06:59:57.068Z,14.01
2022-12-22T07:00:38.505Z,14.66
2022-12-22T07:01:20.165Z,13.32
2022-12-22T07:02:55.278Z,13.56
2022-12-22T07:03:35.296Z,14.48
2022-12-22T07:04:16.156Z,15.64
2022-12-22T07:04:56.173Z,14.29
2022-12-22T07:05:38.088Z,12.89
2022-12-22T07:06:21.231Z,12.43
2022-12-22T07:07:01.123Z,11.85
2022-12-22T07:07:42.255Z,11.50
2022-12-22T07:08:22.198Z,11.61
2022-12-22T07:09:02.203Z,11.55
2022-12-22T07:09:42.133Z,11.27
2022-12-22T07:10:43.187Z,11.68
2022-12-22T07:11:24.107Z,11.15
2022-12-22T07:12:04.241Z,10.79
2022-12-22T07:12:45.089Z,11.01
2022-12-22T07:13:34.240Z,11.23
2022-12-22T07:14:08.162Z,11.61
2022-12-22T07:14:56.119Z,11.59
2022-12-22T07:15:30.460Z,12.50
2022-12-22T07:16:21.168Z,12.89
2022-12-22T07:16:54.801Z,12.74
2022-12-22T07:17:42.112Z,13.26
2022-12-22T07:18:15.881Z,13.11
2022-12-22T07:18:57.106Z,13.27
2022-12-22T07:19:31.189Z,13.20
2022-12-22T07:20:05.401Z,13.30
2022-12-22T07:20:45.108Z,13.31
2022-12-22T07:21:21.228Z,13.32
2022-12-22T07:21:55.099Z,12.96
2022-12-22T07:22:35.097Z,13.00
2022-12-22T07:23:09.206Z,12.57
2022-12-22T07:23:43.450Z,12.89
2022-12-22T07:24:29.108Z,12.46
2022-12-22T07:25:03.238Z,12.44
2022-12-22T07:25:37.321Z,12.14
2022-12-22T07:26:18.243Z,12.14
2022-12-22T07:26:52.199Z,12.10
2022-12-22T07:27:26.218Z,12.06
2022-12-22T07:28:07.094Z,12.35
2022-12-22T07:28:42.288Z,11.88
2022-12-22T07:29:17.612Z,11.55
2022-12-22T07:29:57.119Z,11.81
2022-12-22T07:30:31.432Z,11.96
2022-12-22T07:31:06.195Z,12.43
2022-12-22T07:31:47.443Z,12.44
2022-12-22T07:32:21.271Z,12.32
2022-12-22T07:32:54.881Z,12.48
2022-12-22T07:33:36.110Z,12.16
2022-12-22T07:34:10.179Z,11.35
2022-12-22T07:34:43.981Z,11.14
2022-12-22T07:35:25.097Z,10.95
2022-12-22T07:36:19.608Z,11.29
2022-12-22T07:36:54.370Z,11.55
2022-12-22T07:37:34.088Z,11.36
2022-12-22T07:38:08.452Z,11.83
2022-12-22T07:38:46.030Z,11.73
2022-12-22T07:39:27.070Z,11.45
2022-12-22T07:40:01.291Z,12.18
2022-12-22T07:40:44.955Z,12.81
2022-12-22T07:41:47.042Z,13.05
2022-12-22T07:42:46.077Z,13.41
2022-12-22T07:43:27.179Z,13.00
2022-12-22T07:44:08.084Z,12.52
2022-12-22T07:44:49.221Z,12.75
2022-12-22T07:45:30.067Z,13.69
2022-12-22T07:46:13.138Z,14.41
2022-12-22T07:46:47.374Z,14.81
2022-12-22T07:47:21.064Z,14.61
2022-12-22T07:48:29.071Z,14.13
2022-12-22T07:49:35.468Z,13.89
2022-12-22T07:50:25.485Z,12.89
2022-12-22T07:51:10.065Z,13.13
2022-12-22T07:51:53.075Z,13.19
2022-12-22T07:52:26.891Z,12.86
2022-12-22T07:53:17.069Z,13.36
2022-12-22T07:53:50.953Z,13.06
2022-12-22T07:54:42.264Z,12.74
2022-12-22T07:55:16.896Z,12.59
2022-12-22T07:56:04.065Z,12.36
2022-12-22T07:56:38.697Z,11.98
2022-12-22T07:57:19.105Z,11.36
2022-12-22T07:57:53.114Z,10.69
2022-12-22T07:58:26.800Z,10.94
2022-12-22T07:59:08.065Z,11.74
2022-12-22T07:59:42.158Z,11.35
2022-12-22T08:00:17.200Z,11.09
2022-12-22T08:00:57.065Z,11.25
2022-12-22T08:01:31.149Z,11.94
2022-12-22T08:02:04.940Z,11.61
2022-12-22T08:02:46.164Z,12.59
2022-12-22T08:03:20.279Z,13.38
2022-12-22T08:03:53.926Z,14.13
2022-12-22T08:04:34.083Z,15.41
2022-12-22T08:05:08.212Z,15.30
2022-12-22T08:05:41.807Z,16.49
2022-12-22T08:06:22.056Z,17.06
2022-12-22T08:06:56.159Z,16.58
2022-12-22T08:07:29.909Z,16.17
2022-12-22T08:08:11.085Z,15.82
2022-12-22T08:08:45.187Z,15.41
2022-12-22T08:09:21.718Z,15.10
2022-12-22T08:10:02.125Z,14.66
2022-12-22T08:10:36.147Z,14.10
2022-12-22T08:11:09.914Z,13.95
2022-12-22T08:11:51.042Z,14.02
2022-12-22T08:12:25.164Z,13.91
2022-12-22T08:12:58.943Z,13.71
2022-12-22T08:13:41.071Z,13.05
2022-12-22T08:14:15.307Z,12.69
2022-12-22T08:14:49.807Z,13.48
2022-12-22T08:15:30.066Z,13.15
2022-12-22T08:16:13.271Z,12.39
2022-12-22T08:16:47.811Z,11.99
2022-12-22T08:17:28.038Z,11.93
2022-12-22T08:18:03.095Z,11.93
2022-12-22T08:18:37.593Z,11.89
2022-12-22T08:19:18.076Z,11.98
2022-12-22T08:19:52.107Z,11.54
2022-12-22T08:20:25.945Z,11.21
2022-12-22T08:21:07.020Z,11.14
2022-12-22T08:21:44.221Z,11.01
2022-12-22T08:22:24.495Z,11.10
2022-12-22T08:23:05.020Z,11.20
2022-12-22T08:23:39.156Z,11.45
2022-12-22T08:24:12.800Z,11.54
2022-12-22T08:24:53.026Z,11.38
2022-12-22T08:25:27.140Z,11.16
2022-12-22T08:26:25.282Z,11.43
2022-12-22T08:27:10.031Z,11.63
2022-12-22T08:27:51.162Z,11.84
2022-12-22T08:28:24.713Z,11.95
2022-12-22T08:29:41.032Z,11.63
2022-12-22T08:30:23.032Z,12.19
2022-12-22T08:30:56.723Z,12.89
2022-12-22T08:31:45.146Z,13.24
2022-12-22T08:32:18.873Z,13.00
2022-12-22T08:33:06.040Z,12.75
2022-12-22T08:33:39.832Z,12.64
2022-12-22T08:34:29.019Z,13.34
2022-12-22T08:35:07.033Z,13.16
2022-12-22T08:35:48.061Z,12.64
2022-12-22T08:36:22.079Z,12.89
2022-12-22T08:36:58.473Z,12.86
2022-12-22T08:37:42.024Z,12.96
2022-12-22T08:38:18.180Z,13.24
2022-12-22T08:38:52.073Z,13.38
2022-12-22T08:39:35.029Z,12.73
2022-12-22T08:40:12.099Z,12.85
2022-12-22T08:40:45.905Z,13.20
2022-12-22T08:41:46.054Z,12.68
2022-12-22T08:42:23.099Z,12.69
2022-12-22T08:43:08.419Z,12.44
2022-12-22T08:43:48.984Z,11.54
2022-12-22T08:44:30.270Z,10.98
2022-12-22T08:45:05.445Z,10.96
2022-12-22T08:45:45.015Z,10.71
2022-12-22T08:46:19.142Z,10.39
2022-12-22T08:47:01.086Z,10.66
2022-12-22T08:47:42.702Z,11.05
2022-12-22T08:48:23.007Z,11.29
2022-12-22T08:49:04.054Z,10.86
2022-12-22T08:49:44.048Z,10.98
2022-12-22T08:50:24.074Z,11.30
2022-12-22T08:51:04.006Z,11.14
2022-12-22T08:51:44.076Z,10.89
2022-12-22T08:52:24.057Z,11.31
2022-12-22T08:53:45.283Z,11.77
2022-12-22T08:54:15.989Z,11.88
2022-12-22T08:54:56.074Z,11.63
2022-12-22T08:55:36.017Z,12.14
2022-12-22T08:56:16.079Z,13.31
2022-12-22T08:56:55.985Z,14.46
2022-12-22T08:57:43.063Z,13.84
2022-12-22T08:58:16.699Z,12.52
2022-12-22T08:59:04.000Z,11.85
2022-12-22T08:59:37.731Z,11.45
2022-12-22T09:00:27.015Z,11.09
2022-12-22T09:01:00.731Z,11.24
2022-12-22T09:01:54.030Z,10.71
2022-12-22T09:02:27.759Z,10.90
2022-12-22T09:03:09.117Z,11.20
2022-12-22T09:03:43.025Z,11.68
2022-12-22T09:04:19.413Z,12.38
2022-12-22T09:04:58.992Z,12.54
2022-12-22T09:05:33.064Z,12.39
2022-12-22T09:06:07.050Z,11.31
2022-12-22T09:06:47.989Z,10.93
2022-12-22T09:07:22.097Z,10.89
2022-12-22T09:07:56.752Z,11.27
2022-12-22T09:08:36.988Z,11.35
2022-12-22T09:09:14.146Z,11.82
2022-12-22T09:09:47.770Z,11.43
2022-12-22T09:10:27.976Z,12.00
2022-12-22T09:11:02.067Z,11.63
2022-12-22T09:11:36.035Z,11.63
2022-12-22T09:12:17.002Z,11.66
2022-12-22T09:12:51.290Z,11.18
2022-12-22T09:13:25.682Z,11.59
2022-12-22T09:14:09.003Z,12.30
2022-12-22T09:14:43.175Z,12.54
2022-12-22T09:15:18.278Z,12.77
2022-12-22T09:15:58.011Z,12.30
2022-12-22T09:16:34.153Z,11.88
2022-12-22T09:17:08.702Z,11.94
2022-12-22T09:17:49.993Z,11.80
2022-12-22T09:18:24.038Z,11.77
2022-12-22T09:18:57.785Z,11.79
2022-12-22T09:19:37.999Z,11.86
2022-12-22T09:20:14.168Z,11.81
2022-12-22T09:20:48.066Z,11.44
2022-12-22T09:21:29.959Z,11.05
2022-12-22T09:22:04.045Z,11.19
2022-12-22T09:22:37.814Z,11.44
2022-12-22T09:23:17.957Z,11.38
2022-12-22T09:23:52.058Z,11.16
2022-12-22T09:24:25.671Z,11.41
2022-12-22T09:25:05.981Z,12.04
2022-12-22T09:25:41.069Z,11.77
2022-12-22T09:26:19.159Z,11.27
2022-12-22T09:26:59.967Z,10.94
2022-12-22T09:27:34.061Z,10.89
2022-12-22T09:28:08.010Z,10.73
2022-12-22T09:28:50.795Z,11.74
2022-12-22T09:29:25.067Z,12.05
2022-12-22T09:29:58.672Z,11.69
2022-12-22T09:30:39.004Z,11.85
2022-12-22T09:31:14.148Z,11.93
2022-12-22T09:31:48.758Z,11.82
2022-12-22T09:32:29.961Z,11.79
2022-12-22T09:33:04.058Z,11.69
2022-12-22T09:33:37.851Z,11.39
2022-12-22T09:34:18.993Z,11.44
2022-12-22T09:34:53.039Z,11.40
2022-12-22T09:35:26.801Z,11.07
2022-12-22T09:36:06.972Z,11.05
2022-12-22T09:36:41.015Z,11.09
2022-12-22T09:37:16.052Z,11.86
2022-12-22T09:37:55.984Z,12.40
2022-12-22T09:38:34.045Z,11.89
2022-12-22T09:39:10.861Z,11.71
2022-12-22T09:39:52.975Z,11.96
2022-12-22T09:40:27.106Z,12.14
2022-12-22T09:41:38.958Z,12.05
2022-12-22T09:42:27.107Z,11.89
2022-12-22T09:43:07.943Z,11.84
2022-12-22T09:43:48.058Z,11.73
2022-12-22T09:44:50.963Z,11.31
2022-12-22T09:45:33.837Z,11.41
2022-12-22T09:46:41.961Z,11.38
2022-12-22T09:47:42.034Z,11.06
2022-12-22T09:48:28.926Z,11.20
2022-12-22T09:49:03.004Z,11.05
2022-12-22T09:49:49.969Z,10.98
2022-12-22T09:50:24.091Z,10.88
2022-12-22T09:51:11.954Z,11.56
2022-12-22T09:52:02.970Z,11.52
2022-12-22T09:53:01.962Z,11.31
2022-12-22T09:53:58.929Z,11.27
2022-12-22T09:54:52.931Z,11.45